createdAt,value
2018-04-16T00:02:12.874Z,74.64
2018-04-16T00:04:47.413Z,74.79
2018-04-16T00:07:20.938Z,74.21
2018-04-16T00:09:54.704Z,74.45
2018-04-16T00:12:28.413Z,74.29
2018-04-16T00:15:02.132Z,74.05
2018-04-16T00:17:36.110Z,74.31
2018-04-16T00:20:09.747Z,73.81
2018-04-16T00:32:34.193Z,73.82
2018-04-16T00:38:16.193Z,72.01
2018-04-16T00:40:55.440Z,72.08
2018-04-16T00:43:34.636Z,71.59
2018-04-16T00:46:13.970Z,71.73
2018-04-16T00:48:53.218Z,71.31
2018-04-16T00:51:32.307Z,71.25
2018-04-16T00:54:23.663Z,71.84
2018-04-16T00:57:02.826Z,71.68
2018-04-16T00:59:42.026Z,71.80
2018-04-16T01:02:21.200Z,72.07
2018-04-16T01:05:00.287Z,72.61
2018-04-16T01:07:39.496Z,72.86
2018-04-16T01:10:18.616Z,72.95
2018-04-16T01:12:57.836Z,73.42
2018-04-16T01:15:37.214Z,73.26
2018-04-16T01:18:16.391Z,73.68
2018-04-16T01:20:55.471Z,74.10
2018-04-16T01:23:34.575Z,74.50
2018-04-16T01:26:13.638Z,74.80
2018-04-16T01:28:52.799Z,74.54
2018-04-16T01:31:32.019Z,74.55
2018-04-16T01:34:11.326Z,74.87
2018-04-16T01:46:35.585Z,75.40
2018-04-16T01:49:14.837Z,75.63
2018-04-16T01:51:54.128Z,75.47
2018-04-16T01:54:33.390Z,75.75
2018-04-16T01:57:12.714Z,75.84
2018-04-16T01:59:52.034Z,75.81
2018-04-16T02:02:31.326Z,75.92
2018-04-16T02:05:10.904Z,76.30
2018-04-16T02:07:50.203Z,76.07
2018-04-16T02:10:29.463Z,76.28
2018-04-16T02:13:08.561Z,76.59
2018-04-16T02:15:47.923Z,76.91
2018-04-16T02:31:29.112Z,77.52
2018-04-16T02:34:09.510Z,77.65
2018-04-16T02:36:48.618Z,78.05
2018-04-16T02:39:27.896Z,77.76
2018-04-16T02:42:07.237Z,77.75
2018-04-16T02:44:46.607Z,77.98
2018-04-16T02:47:25.762Z,78.19
2018-04-16T02:50:04.926Z,78.37
2018-04-16T02:52:43.965Z,78.44
2018-04-16T02:55:23.088Z,78.36
2018-04-16T02:58:02.550Z,78.35
2018-04-16T03:00:41.785Z,78.25
2018-04-16T03:03:21.241Z,78.39
2018-04-16T03:06:00.954Z,78.68
2018-04-16T03:08:40.239Z,78.64
2018-04-16T03:11:19.376Z,78.43
2018-04-16T03:13:58.468Z,78.06
2018-04-16T03:16:37.729Z,78.16
2018-04-16T03:19:16.907Z,78.09
2018-04-16T03:21:56.144Z,78.14
2018-04-16T03:24:35.466Z,78.02
2018-04-16T03:27:14.677Z,77.76
2018-04-16T03:29:54.719Z,77.38
2018-04-16T03:32:33.788Z,77.44
2018-04-16T03:35:13.280Z,77.71
2018-04-16T03:37:52.457Z,77.87
2018-04-16T03:40:31.687Z,78.27
2018-04-16T03:43:11.326Z,77.54
2018-04-16T03:45:50.635Z,78.47
2018-04-16T03:48:29.829Z,78.31
2018-04-16T03:51:14.299Z,78.43
2018-04-16T03:53:48.385Z,78.58
2018-04-16T03:56:22.142Z,78.65
2018-04-16T03:58:55.667Z,78.42
2018-04-16T04:01:29.267Z,78.46
2018-04-16T04:04:02.827Z,78.47
2018-04-16T04:06:36.403Z,78.44
2018-04-16T04:09:10.128Z,78.06
2018-04-16T04:11:44.163Z,77.80
2018-04-16T04:14:17.858Z,78.01
2018-04-16T04:16:51.494Z,77.49
2018-04-16T04:19:25.586Z,77.71
2018-04-16T04:21:59.209Z,78.01
2018-04-16T04:24:44.661Z,78.31
2018-04-16T04:27:30.882Z,78.13
2018-04-16T04:30:16.185Z,78.33
2018-04-16T04:32:49.867Z,78.50
2018-04-16T04:35:23.511Z,78.48
2018-04-16T04:37:57.051Z,78.42
2018-04-16T04:40:30.633Z,78.19
2018-04-16T04:43:04.443Z,77.83
2018-04-16T04:45:39.009Z,77.62
2018-04-16T04:48:12.815Z,77.18
2018-04-16T04:50:46.457Z,77.33
2018-04-16T04:53:19.976Z,78.02
2018-04-16T04:55:53.663Z,77.98
2018-04-16T04:58:27.262Z,77.74
2018-04-16T05:01:00.975Z,76.85
2018-04-16T05:03:35.507Z,76.42
2018-04-16T05:06:09.177Z,76.00
2018-04-16T05:08:43.196Z,75.83
2018-04-16T05:11:16.835Z,75.55
2018-04-16T05:13:50.382Z,75.12
2018-04-16T05:16:24.007Z,74.94
2018-04-16T05:18:57.574Z,74.77
2018-04-16T05:21:31.282Z,74.80
2018-04-16T05:24:04.866Z,74.83
2018-04-16T05:26:38.603Z,74.02
2018-04-16T05:29:12.422Z,73.60
2018-04-16T05:31:46.017Z,73.25
2018-04-16T05:34:19.996Z,73.40
2018-04-16T05:36:53.744Z,73.14
2018-04-16T05:39:27.329Z,73.09
2018-04-16T05:42:01.137Z,73.99
2018-04-16T05:44:35.828Z,74.09
2018-04-16T05:47:09.459Z,74.06
2018-04-16T05:49:43.764Z,74.47
2018-04-16T05:52:17.370Z,74.06
2018-04-16T05:54:51.160Z,74.63
2018-04-16T05:57:24.908Z,74.57
2018-04-16T05:59:58.582Z,74.11
2018-04-16T06:02:33.140Z,73.54
2018-04-16T06:05:06.985Z,73.32
2018-04-16T06:07:40.635Z,73.94
2018-04-16T06:10:14.230Z,74.19
2018-04-16T06:12:48.419Z,73.84
2018-04-16T06:15:21.974Z,73.92
2018-04-16T06:17:55.531Z,73.89
2018-04-16T06:20:29.199Z,74.19
2018-04-16T06:23:02.763Z,73.61
2018-04-16T06:25:36.439Z,73.79
2018-04-16T06:28:09.995Z,73.95
2018-04-16T06:30:43.670Z,73.89
2018-04-16T06:33:17.359Z,73.42
2018-04-16T06:35:50.926Z,73.67
2018-04-16T06:38:24.414Z,73.52
2018-04-16T06:40:58.200Z,73.16
2018-04-16T06:43:31.874Z,72.46
2018-04-16T06:46:05.407Z,71.80
2018-04-16T06:48:39.048Z,71.48
2018-04-16T06:51:12.732Z,71.60
2018-04-16T06:53:46.363Z,72.06
2018-04-16T06:56:19.924Z,71.85
2018-04-16T06:58:53.804Z,71.49
2018-04-16T07:11:12.646Z,66.30
2018-04-16T07:13:46.386Z,64.73
2018-04-16T07:16:20.717Z,62.31
2018-04-16T07:18:54.467Z,60.15
2018-04-16T07:21:28.021Z,57.91
2018-04-16T07:24:01.564Z,57.05
2018-04-16T07:26:35.274Z,55.77
2018-04-16T07:29:09.050Z,47.34
2018-04-16T07:31:42.567Z,39.42
2018-04-16T07:34:16.377Z,33.64
2018-04-16T07:49:50.214Z,20.42
2018-04-16T07:52:23.935Z,23.15
2018-04-16T07:54:57.665Z,21.46
2018-04-16T07:57:31.370Z,23.76
2018-04-16T08:00:04.966Z,30.35
2018-04-16T08:02:39.182Z,35.27
2018-04-16T08:05:13.268Z,36.16
2018-04-16T08:07:46.770Z,37.40
2018-04-16T08:10:20.270Z,37.29
2018-04-16T08:12:53.919Z,44.19
2018-04-16T08:15:27.527Z,36.44
2018-04-16T08:18:01.655Z,31.00
2018-04-16T08:20:35.219Z,31.08
2018-04-16T08:23:09.831Z,31.47
2018-04-16T08:25:43.816Z,27.91
2018-04-16T08:28:17.480Z,35.92
2018-04-16T08:30:51.920Z,47.86
2018-04-16T08:33:25.454Z,54.67
2018-04-16T08:35:59.045Z,58.46
2018-04-16T08:38:32.707Z,58.09
2018-04-16T08:41:06.401Z,56.14
2018-04-16T08:43:39.947Z,55.05
2018-04-16T08:46:13.458Z,54.82
2018-04-16T08:48:46.981Z,55.86
2018-04-16T08:51:20.610Z,56.53
2018-04-16T08:53:54.269Z,55.83
2018-04-16T08:56:27.818Z,55.61
2018-04-16T08:59:01.580Z,55.71
2018-04-16T09:01:35.184Z,55.18
2018-04-16T09:04:08.708Z,54.36
2018-04-16T09:06:42.216Z,54.81
2018-04-16T09:09:15.832Z,53.68
2018-04-16T09:11:49.602Z,53.33
2018-04-16T09:14:23.907Z,53.80
2018-04-16T09:16:57.478Z,54.76
2018-04-16T09:19:31.014Z,54.92
2018-04-16T09:22:04.937Z,55.03
2018-04-16T09:24:39.483Z,54.93
2018-04-16T09:27:13.133Z,55.02
2018-04-16T09:29:46.658Z,54.96
2018-04-16T09:32:20.316Z,53.96
2018-04-16T09:34:53.972Z,54.45
2018-04-16T09:37:27.688Z,54.50
2018-04-16T09:40:01.206Z,53.98
2018-04-16T09:42:35.621Z,54.38
2018-04-16T09:45:10.127Z,53.32
2018-04-16T09:47:43.748Z,54.14
2018-04-16T09:50:18.152Z,54.63
2018-04-16T09:52:51.717Z,55.45
2018-04-16T09:55:25.261Z,55.68
2018-04-16T09:57:59.389Z,55.19
2018-04-16T10:00:38.894Z,56.27
2018-04-16T10:03:18.355Z,55.00
2018-04-16T10:05:51.957Z,55.22
2018-04-16T10:08:25.507Z,55.43
2018-04-16T10:10:59.462Z,54.69
2018-04-16T10:13:33.589Z,54.33
2018-04-16T10:16:07.169Z,54.47
2018-04-16T10:18:40.644Z,52.29
2018-04-16T10:21:14.348Z,51.37
2018-04-16T10:23:47.888Z,51.90
2018-04-16T10:26:21.396Z,52.59
2018-04-16T10:28:55.065Z,52.38
2018-04-16T10:31:28.837Z,52.75
2018-04-16T10:34:03.327Z,52.79
2018-04-16T10:36:36.939Z,54.15
2018-04-16T10:39:10.696Z,55.19
2018-04-16T10:41:44.354Z,56.52
2018-04-16T10:44:18.635Z,56.06
2018-04-16T10:46:53.211Z,55.18
2018-04-16T10:49:26.834Z,55.34
2018-04-16T10:52:00.496Z,55.53
2018-04-16T10:54:34.060Z,55.69
2018-04-16T10:57:08.053Z,55.37
2018-04-16T10:59:41.579Z,53.83
2018-04-16T11:02:15.099Z,54.45
2018-04-16T11:14:33.843Z,53.02
2018-04-16T11:17:07.423Z,52.27
2018-04-16T11:19:41.744Z,52.72
2018-04-16T11:22:15.453Z,52.54
2018-04-16T11:24:49.556Z,53.64
2018-04-16T11:27:23.367Z,53.94
2018-04-16T11:29:57.662Z,53.28
2018-04-16T11:32:31.239Z,52.98
2018-04-16T11:35:04.823Z,51.77
2018-04-16T11:37:38.817Z,50.96
2018-04-16T11:40:12.427Z,50.18
2018-04-16T11:42:46.163Z,50.57
2018-04-16T11:45:20.565Z,50.95
2018-04-16T11:47:54.511Z,50.92
2018-04-16T11:50:29.183Z,51.19
2018-04-16T11:53:02.926Z,51.85
2018-04-16T11:55:36.871Z,51.52
2018-04-16T11:58:10.605Z,51.62
2018-04-16T12:00:44.489Z,51.14
2018-04-16T12:03:18.065Z,51.59
2018-04-16T12:05:51.615Z,52.33
2018-04-16T12:08:25.095Z,52.29
2018-04-16T12:10:59.815Z,52.44
2018-04-16T12:13:33.345Z,51.35
2018-04-16T12:16:06.872Z,51.17
2018-04-16T12:18:40.663Z,50.28
2018-04-16T12:21:14.479Z,49.80
2018-04-16T12:23:47.990Z,50.20
2018-04-16T12:26:22.359Z,50.64
2018-04-16T12:28:55.931Z,50.27
2018-04-16T12:31:29.708Z,51.48
2018-04-16T12:34:03.247Z,51.11
2018-04-16T12:36:37.859Z,50.77
2018-04-16T12:39:11.683Z,50.02
2018-04-16T12:41:45.334Z,49.08
2018-04-16T12:44:19.088Z,48.85
2018-04-16T12:46:52.608Z,48.86
2018-04-16T12:49:26.573Z,48.82
2018-04-16T12:52:00.738Z,49.08
2018-04-16T12:54:34.464Z,49.04
2018-04-16T12:57:08.169Z,48.31
2018-04-16T12:59:42.078Z,48.45
2018-04-16T13:02:15.721Z,48.65
2018-04-16T13:04:49.277Z,48.81
2018-04-16T13:07:22.821Z,48.87
2018-04-16T13:09:57.522Z,49.58
2018-04-16T13:12:31.942Z,48.70
2018-04-16T13:15:06.595Z,49.28
2018-04-16T13:17:40.217Z,49.80
2018-04-16T13:20:13.972Z,50.25
2018-04-16T13:22:47.656Z,50.14
2018-04-16T13:25:21.268Z,50.26
2018-04-16T13:27:54.950Z,50.98
2018-04-16T13:40:14.523Z,51.16
2018-04-16T13:42:48.106Z,50.87
2018-04-16T13:45:21.696Z,50.69
2018-04-16T13:47:55.235Z,50.77
2018-04-16T13:50:28.977Z,50.89
2018-04-16T13:53:02.823Z,50.74
2018-04-16T13:55:36.639Z,50.40
2018-04-16T13:58:10.356Z,50.92
2018-04-16T14:00:44.120Z,51.11
2018-04-16T14:03:17.862Z,51.05
2018-04-16T14:05:51.398Z,50.96
2018-04-16T14:08:25.035Z,50.82
2018-04-16T14:10:58.760Z,50.92
2018-04-16T14:13:32.499Z,51.00
2018-04-16T14:16:06.218Z,50.91
2018-04-16T14:18:39.773Z,51.45
2018-04-16T14:21:13.594Z,50.81
2018-04-16T14:23:48.436Z,51.26
2018-04-16T14:26:21.999Z,50.78
2018-04-16T14:28:56.613Z,50.13
2018-04-16T14:31:30.269Z,50.32
2018-04-16T14:34:03.823Z,50.07
2018-04-16T14:36:37.401Z,50.30
2018-04-16T14:39:10.947Z,50.31
2018-04-16T14:41:44.473Z,50.43
2018-04-16T14:44:18.016Z,50.06
2018-04-16T14:46:51.614Z,49.86
2018-04-16T14:59:10.297Z,48.47
2018-04-16T15:01:45.111Z,48.97
2018-04-16T15:04:18.684Z,48.94
2018-04-16T15:06:52.347Z,47.56
2018-04-16T15:09:25.958Z,47.23
2018-04-16T15:11:59.730Z,47.04
2018-04-16T15:14:33.440Z,46.79
2018-04-16T15:17:07.239Z,46.62
2018-04-16T15:19:40.921Z,45.95
2018-04-16T15:22:14.593Z,46.03
2018-04-16T15:24:48.216Z,45.92
2018-04-16T15:27:21.952Z,45.93
2018-04-16T15:29:55.501Z,46.43
2018-04-16T15:32:29.148Z,45.83
2018-04-16T15:47:57.931Z,45.19
2018-04-16T15:50:31.551Z,44.03
2018-04-16T15:53:05.186Z,44.13
2018-04-16T15:55:39.611Z,43.68
2018-04-16T15:58:13.348Z,44.55
2018-04-16T16:00:47.014Z,44.63
2018-04-16T16:03:20.580Z,44.89
2018-04-16T16:05:54.316Z,45.28
2018-04-16T16:08:28.160Z,45.31
2018-04-16T16:11:02.061Z,45.33
2018-04-16T16:13:35.698Z,45.45
2018-04-16T16:16:09.381Z,45.63
2018-04-16T16:18:42.938Z,45.57
2018-04-16T16:21:16.434Z,45.51
2018-04-16T16:23:50.180Z,45.86
2018-04-16T16:26:24.036Z,44.92
2018-04-16T16:28:57.719Z,45.56
2018-04-16T16:31:31.229Z,45.58
2018-04-16T16:34:04.739Z,45.56
2018-04-16T16:36:38.375Z,45.30
2018-04-16T16:39:12.081Z,44.97
2018-04-16T16:41:45.948Z,44.50
2018-04-16T16:44:19.479Z,44.72
2018-04-16T16:46:54.144Z,44.60
2018-04-16T16:49:27.674Z,43.53
2018-04-16T16:52:01.375Z,43.21
2018-04-16T16:54:34.890Z,43.37
2018-04-16T16:57:08.427Z,43.29
2018-04-16T16:59:42.113Z,43.18
2018-04-16T17:02:15.619Z,43.40
2018-04-16T17:04:49.233Z,43.45
2018-04-16T17:07:22.807Z,43.12
2018-04-16T17:09:56.359Z,42.99
2018-04-16T17:12:30.447Z,42.35
2018-04-16T17:15:04.099Z,42.37
2018-04-16T17:17:37.641Z,42.93
2018-04-16T17:20:11.206Z,42.38
2018-04-16T17:22:44.678Z,41.84
2018-04-16T17:25:18.223Z,41.86
2018-04-16T17:27:52.188Z,42.56
2018-04-16T17:30:25.942Z,42.78
2018-04-16T17:32:59.667Z,43.11
2018-04-16T17:35:33.241Z,43.23
2018-04-16T17:38:06.916Z,43.27
2018-04-16T17:40:40.609Z,43.48
2018-04-16T17:43:14.179Z,43.82
2018-04-16T17:45:47.725Z,43.82
2018-04-16T17:48:21.281Z,44.28
2018-04-16T17:50:56.354Z,43.71
2018-04-16T17:53:30.103Z,42.66
2018-04-16T17:56:03.939Z,43.39
2018-04-16T17:58:37.887Z,43.31
2018-04-16T18:01:11.499Z,43.97
2018-04-16T18:03:45.473Z,43.15
2018-04-16T18:06:19.095Z,42.80
2018-04-16T18:08:52.544Z,43.11
2018-04-16T18:11:26.069Z,43.49
2018-04-16T18:13:59.751Z,43.48
2018-04-16T18:16:33.550Z,43.48
2018-04-16T18:19:07.376Z,43.12
2018-04-16T18:21:41.046Z,42.93
2018-04-16T18:24:14.573Z,43.20
2018-04-16T18:26:48.103Z,43.32
2018-04-16T18:29:22.673Z,43.25
2018-04-16T18:31:57.422Z,43.24
2018-04-16T18:34:31.678Z,42.94
2018-04-16T18:37:05.200Z,43.16
2018-04-16T18:39:39.119Z,43.39
2018-04-16T18:42:12.800Z,43.21
2018-04-16T18:44:46.292Z,43.31
2018-04-16T18:47:20.651Z,42.97
2018-04-16T18:49:54.200Z,42.90
2018-04-16T18:52:27.796Z,43.21
2018-04-16T18:55:01.765Z,42.84
2018-04-16T18:57:35.461Z,43.02
2018-04-16T19:00:09.151Z,43.52
2018-04-16T19:02:43.316Z,43.29
2018-04-16T19:05:17.632Z,43.22
2018-04-16T19:07:52.456Z,43.57
2018-04-16T19:10:26.133Z,43.82
2018-04-16T19:13:00.861Z,43.81
2018-04-16T19:15:35.160Z,44.05
2018-04-16T19:18:09.735Z,44.37
2018-04-16T19:23:52.145Z,43.83
2018-04-16T19:26:25.941Z,44.34
2018-04-16T19:28:59.922Z,44.17
2018-04-16T19:31:33.526Z,44.33
2018-04-16T19:34:12.652Z,44.61
2018-04-16T19:36:46.360Z,44.42
2018-04-16T19:39:20.832Z,44.48
2018-04-16T19:42:00.226Z,44.62
2018-04-16T19:44:33.824Z,44.67
2018-04-16T19:47:07.808Z,44.50
2018-04-16T19:52:42.182Z,44.71
2018-04-16T19:55:15.883Z,44.61
2018-04-16T19:57:55.392Z,44.87
2018-04-16T20:00:29.087Z,45.14
2018-04-16T20:03:08.190Z,45.69
2018-04-16T20:05:41.920Z,45.93
2018-04-16T20:08:16.286Z,45.96
2018-04-16T20:10:50.065Z,46.21
2018-04-16T20:13:23.764Z,46.18
2018-04-16T20:15:57.416Z,46.19
2018-04-16T20:18:31.035Z,46.74
2018-04-16T20:21:04.657Z,46.96
2018-04-16T20:23:38.232Z,47.10
2018-04-16T20:26:12.018Z,47.42
2018-04-16T20:28:45.575Z,47.17
2018-04-16T20:31:19.300Z,47.26
2018-04-16T20:33:52.979Z,48.13
2018-04-16T20:36:26.699Z,47.91
2018-04-16T20:39:00.630Z,47.87
2018-04-16T20:41:34.289Z,47.96
2018-04-16T20:44:08.014Z,48.18
2018-04-16T20:46:41.798Z,48.46
2018-04-16T20:49:15.395Z,48.09
2018-04-16T20:51:48.932Z,48.17
2018-04-16T20:54:22.530Z,48.51
2018-04-16T20:56:56.107Z,49.26
2018-04-16T20:59:29.710Z,50.11
2018-04-16T21:02:03.387Z,51.11
2018-04-16T21:04:37.086Z,51.19
2018-04-16T21:07:11.380Z,51.22
2018-04-16T21:09:44.970Z,51.50
2018-04-16T21:12:18.548Z,52.14
2018-04-16T21:14:52.151Z,51.98
2018-04-16T21:17:25.816Z,51.69
2018-04-16T21:19:59.485Z,52.25
2018-04-16T21:22:33.039Z,52.27
2018-04-16T21:25:06.853Z,52.10
2018-04-16T21:27:40.604Z,52.11
2018-04-16T21:30:14.122Z,52.16
2018-04-16T21:32:47.600Z,52.46
2018-04-16T21:35:21.254Z,52.93
2018-04-16T21:37:55.004Z,53.14
2018-04-16T21:40:28.548Z,53.55
2018-04-16T21:43:02.139Z,53.97
2018-04-16T21:45:35.728Z,54.15
2018-04-16T21:48:09.231Z,54.39
2018-04-16T21:50:42.973Z,54.30
2018-04-16T21:53:16.723Z,54.96
2018-04-16T21:55:50.375Z,54.67
2018-04-16T21:58:24.147Z,54.76
2018-04-16T22:00:58.268Z,54.85
2018-04-16T22:03:31.847Z,54.72
2018-04-16T22:06:05.657Z,54.40
2018-04-16T22:08:39.456Z,54.35
2018-04-16T22:11:13.095Z,54.65
2018-04-16T22:13:46.686Z,54.39
2018-04-16T22:16:20.272Z,54.41
2018-04-16T22:18:54.060Z,54.13
2018-04-16T22:21:28.645Z,54.32
2018-04-16T22:24:02.175Z,54.68
2018-04-16T22:26:35.753Z,54.88
2018-04-16T22:29:09.372Z,54.94
2018-04-16T22:31:42.924Z,54.90
2018-04-16T22:34:16.494Z,55.26
2018-04-16T22:36:50.371Z,55.44
2018-04-16T22:39:23.899Z,55.64
2018-04-16T22:41:57.568Z,55.28
2018-04-16T22:44:31.731Z,55.30
2018-04-16T22:47:05.371Z,55.29
2018-04-16T22:49:39.100Z,55.64
2018-04-16T22:52:13.312Z,56.18
2018-04-16T22:54:46.994Z,56.68
2018-04-16T22:57:20.547Z,56.43
2018-04-16T22:59:54.027Z,56.62
2018-04-16T23:02:28.063Z,56.48
2018-04-16T23:05:01.667Z,56.60
2018-04-16T23:07:35.475Z,56.31
2018-04-16T23:10:09.031Z,56.03
2018-04-16T23:12:42.653Z,56.00
2018-04-16T23:15:16.276Z,56.44
2018-04-16T23:17:49.914Z,57.24
2018-04-16T23:20:23.587Z,57.47
2018-04-16T23:22:57.402Z,57.79
2018-04-16T23:25:31.019Z,57.54
2018-04-16T23:28:04.858Z,57.97
2018-04-16T23:30:38.606Z,58.56
2018-04-16T23:33:12.956Z,58.81
2018-04-16T23:35:46.457Z,59.03
2018-04-16T23:38:20.212Z,59.21
2018-04-16T23:40:53.894Z,59.51
2018-04-16T23:43:27.366Z,59.32
2018-04-16T23:46:00.967Z,59.22
2018-04-16T23:48:34.595Z,59.12
2018-04-16T23:51:08.355Z,59.47
2018-04-16T23:53:41.908Z,59.66
2018-04-16T23:56:15.843Z,59.96
2018-04-16T23:58:50.313Z,59.71
